sensor_id;sensor_type;location;lat;lon;timestamp;P1;durP1;ratioP1;P2;durP2;ratioP2
11283;SDS011;5698;47.332;11.180;2024-01-30T00:01:53;0.70;;;0.70;;
11283;SDS011;5698;47.332;11.180;2024-01-30T00:04:20;0.50;;;0.50;;
11283;SDS011;5698;47.332;11.180;2024-01-30T00:06:48;0.63;;;0.50;;
11283;SDS011;5698;47.332;11.180;2024-01-30T00:09:17;0.50;;;0.50;;
11283;SDS011;5698;47.332;11.180;2024-01-30T00:11:44;0.60;;;0.60;;
11283;SDS011;5698;47.332;11.180;2024-01-30T00:14:11;0.77;;;0.60;;
11283;SDS011;5698;47.332;11.180;2024-01-30T00:16:39;1.03;;;0.70;;
11283;SDS011;5698;47.332;11.180;2024-01-30T00:19:06;1.03;;;0.60;;
11283;SDS011;5698;47.332;11.180;2024-01-30T00:21:33;0.60;;;0.60;;
11283;SDS011;5698;47.332;11.180;2024-01-30T00:24:02;0.60;;;0.60;;
11283;SDS011;5698;47.332;11.180;2024-01-30T00:26:29;0.77;;;0.60;;
11283;SDS011;5698;47.332;11.180;2024-01-30T00:28:56;0.90;;;0.67;;
11283;SDS011;5698;47.332;11.180;2024-01-30T00:31:23;0.40;;;0.40;;
11283;SDS011;5698;47.332;11.180;2024-01-30T00:33:50;0.93;;;0.50;;
11283;SDS011;5698;47.332;11.180;2024-01-30T00:36:17;0.60;;;0.60;;
11283;SDS011;5698;47.332;11.180;2024-01-30T00:38:45;1.40;;;0.60;;
11283;SDS011;5698;47.332;11.180;2024-01-30T00:41:13;0.53;;;0.53;;
11283;SDS011;5698;47.332;11.180;2024-01-30T00:43:40;0.50;;;0.50;;
11283;SDS011;5698;47.332;11.180;2024-01-30T00:46:07;0.73;;;0.60;;
11283;SDS011;5698;47.332;11.180;2024-01-30T00:48:34;0.63;;;0.60;;
11283;SDS011;5698;47.332;11.180;2024-01-30T00:51:01;0.87;;;0.60;;
11283;SDS011;5698;47.332;11.180;2024-01-30T00:53:28;0.70;;;0.60;;
11283;SDS011;5698;47.332;11.180;2024-01-30T00:55:55;0.60;;;0.60;;
11283;SDS011;5698;47.332;11.180;2024-01-30T00:58:24;0.90;;;0.60;;
11283;SDS011;5698;47.332;11.180;2024-01-30T01:00:51;0.70;;;0.63;;
11283;SDS011;5698;47.332;11.180;2024-01-30T01:03:18;0.90;;;0.70;;
11283;SDS011;5698;47.332;11.180;2024-01-30T01:05:45;0.83;;;0.70;;
11283;SDS011;5698;47.332;11.180;2024-01-30T01:08:12;0.80;;;0.80;;
11283;SDS011;5698;47.332;11.180;2024-01-30T01:10:40;0.40;;;0.40;;
11283;SDS011;5698;47.332;11.180;2024-01-30T01:13:07;0.83;;;0.67;;
11283;SDS011;5698;47.332;11.180;2024-01-30T01:15:36;0.70;;;0.70;;
11283;SDS011;5698;47.332;11.180;2024-01-30T01:18:03;1.80;;;0.70;;
11283;SDS011;5698;47.332;11.180;2024-01-30T01:20:30;0.60;;;0.60;;
11283;SDS011;5698;47.332;11.180;2024-01-30T01:22:57;0.57;;;0.57;;
11283;SDS011;5698;47.332;11.180;2024-01-30T01:25:24;0.80;;;0.70;;
11283;SDS011;5698;47.332;11.180;2024-01-30T01:27:51;0.60;;;0.60;;
11283;SDS011;5698;47.332;11.180;2024-01-30T01:30:18;0.97;;;0.50;;
11283;SDS011;5698;47.332;11.180;2024-01-30T01:32:48;0.77;;;0.57;;
11283;SDS011;5698;47.332;11.180;2024-01-30T01:35:20;0.43;;;0.43;;
11283;SDS011;5698;47.332;11.180;2024-01-30T01:37:47;0.50;;;0.50;;
11283;SDS011;5698;47.332;11.180;2024-01-30T01:40:20;1.50;;;0.60;;
11283;SDS011;5698;47.332;11.180;2024-01-30T01:42:49;0.53;;;0.50;;
11283;SDS011;5698;47.332;11.180;2024-01-30T01:45:16;1.03;;;0.70;;
11283;SDS011;5698;47.332;11.180;2024-01-30T01:47:43;0.70;;;0.70;;
11283;SDS011;5698;47.332;11.180;2024-01-30T01:50:13;0.50;;;0.50;;
11283;SDS011;5698;47.332;11.180;2024-01-30T01:52:44;0.70;;;0.70;;
11283;SDS011;5698;47.332;11.180;2024-01-30T01:55:13;0.50;;;0.50;;
11283;SDS011;5698;47.332;11.180;2024-01-30T01:57:41;0.80;;;0.60;;
11283;SDS011;5698;47.332;11.180;2024-01-30T02:00:08;0.40;;;0.40;;
11283;SDS011;5698;47.332;11.180;2024-01-30T02:02:36;0.87;;;0.50;;
11283;SDS011;5698;47.332;11.180;2024-01-30T02:05:05;0.67;;;0.50;;
11283;SDS011;5698;47.332;11.180;2024-01-30T02:07:34;0.50;;;0.40;;
11283;SDS011;5698;47.332;11.180;2024-01-30T02:10:01;0.40;;;0.40;;
11283;SDS011;5698;47.332;11.180;2024-01-30T02:12:29;0.50;;;0.50;;
11283;SDS011;5698;47.332;11.180;2024-01-30T02:14:56;0.53;;;0.40;;
11283;SDS011;5698;47.332;11.180;2024-01-30T02:17:23;0.87;;;0.77;;
11283;SDS011;5698;47.332;11.180;2024-01-30T02:19:50;0.50;;;0.50;;
11283;SDS011;5698;47.332;11.180;2024-01-30T02:22:19;0.93;;;0.43;;
11283;SDS011;5698;47.332;11.180;2024-01-30T02:24:47;0.53;;;0.53;;
11283;SDS011;5698;47.332;11.180;2024-01-30T02:27:14;0.43;;;0.43;;
11283;SDS011;5698;47.332;11.180;2024-01-30T02:29:41;0.50;;;0.50;;
11283;SDS011;5698;47.332;11.180;2024-01-30T02:32:08;0.50;;;0.50;;
11283;SDS011;5698;47.332;11.180;2024-01-30T02:34:35;0.50;;;0.50;;
11283;SDS011;5698;47.332;11.180;2024-01-30T02:37:02;0.70;;;0.70;;
11283;SDS011;5698;47.332;11.180;2024-01-30T02:39:31;0.60;;;0.60;;
11283;SDS011;5698;47.332;11.180;2024-01-30T02:41:58;0.50;;;0.50;;
11283;SDS011;5698;47.332;11.180;2024-01-30T02:44:25;0.40;;;0.40;;
11283;SDS011;5698;47.332;11.180;2024-01-30T02:46:52;0.60;;;0.60;;
11283;SDS011;5698;47.332;11.180;2024-01-30T02:49:20;0.50;;;0.50;;
11283;SDS011;5698;47.332;11.180;2024-01-30T02:51:47;0.60;;;0.60;;
11283;SDS011;5698;47.332;11.180;2024-01-30T02:54:14;0.50;;;0.50;;
11283;SDS011;5698;47.332;11.180;2024-01-30T02:56:43;0.53;;;0.50;;
11283;SDS011;5698;47.332;11.180;2024-01-30T02:59:10;0.50;;;0.50;;
11283;SDS011;5698;47.332;11.180;2024-01-30T03:01:42;0.57;;;0.57;;
11283;SDS011;5698;47.332;11.180;2024-01-30T03:04:10;0.63;;;0.50;;
11283;SDS011;5698;47.332;11.180;2024-01-30T03:06:37;0.60;;;0.50;;
11283;SDS011;5698;47.332;11.180;2024-01-30T03:09:04;0.53;;;0.50;;
11283;SDS011;5698;47.332;11.180;2024-01-30T03:11:31;0.50;;;0.50;;
11283;SDS011;5698;47.332;11.180;2024-01-30T03:14:00;0.70;;;0.70;;
11283;SDS011;5698;47.332;11.180;2024-01-30T03:16:26;0.50;;;0.50;;
11283;SDS011;5698;47.332;11.180;2024-01-30T03:18:53;0.60;;;0.60;;
11283;SDS011;5698;47.332;11.180;2024-01-30T03:21:20;0.40;;;0.40;;
11283;SDS011;5698;47.332;11.180;2024-01-30T03:23:47;0.50;;;0.50;;
11283;SDS011;5698;47.332;11.180;2024-01-30T03:26:14;0.60;;;0.60;;
11283;SDS011;5698;47.332;11.180;2024-01-30T03:28:41;0.40;;;0.40;;
11283;SDS011;5698;47.332;11.180;2024-01-30T03:31:10;0.50;;;0.50;;
11283;SDS011;5698;47.332;11.180;2024-01-30T03:33:39;0.47;;;0.47;;
11283;SDS011;5698;47.332;11.180;2024-01-30T03:36:06;0.40;;;0.40;;
11283;SDS011;5698;47.332;11.180;2024-01-30T03:38:34;0.53;;;0.53;;
11283;SDS011;5698;47.332;11.180;2024-01-30T03:41:01;0.40;;;0.40;;
11283;SDS011;5698;47.332;11.180;2024-01-30T03:43:28;0.50;;;0.50;;
11283;SDS011;5698;47.332;11.180;2024-01-30T03:45:55;0.63;;;0.50;;
11283;SDS011;5698;47.332;11.180;2024-01-30T03:48:23;1.13;;;0.57;;
11283;SDS011;5698;47.332;11.180;2024-01-30T03:50:50;0.60;;;0.50;;
11283;SDS011;5698;47.332;11.180;2024-01-30T03:53:17;0.60;;;0.57;;
11283;SDS011;5698;47.332;11.180;2024-01-30T03:55:44;0.80;;;0.57;;
11283;SDS011;5698;47.332;11.180;2024-01-30T03:58:11;1.33;;;0.50;;
11283;SDS011;5698;47.332;11.180;2024-01-30T04:00:38;0.50;;;0.50;;
11283;SDS011;5698;47.332;11.180;2024-01-30T04:03:06;0.63;;;0.60;;
11283;SDS011;5698;47.332;11.180;2024-01-30T04:05:34;0.53;;;0.47;;
11283;SDS011;5698;47.332;11.180;2024-01-30T04:08:01;0.70;;;0.50;;
11283;SDS011;5698;47.332;11.180;2024-01-30T04:10:28;0.50;;;0.50;;
11283;SDS011;5698;47.332;11.180;2024-01-30T04:12:55;1.47;;;0.50;;
11283;SDS011;5698;47.332;11.180;2024-01-30T04:15:22;0.50;;;0.50;;
11283;SDS011;5698;47.332;11.180;2024-01-30T04:17:49;0.50;;;0.40;;
11283;SDS011;5698;47.332;11.180;2024-01-30T04:20:16;0.50;;;0.50;;
11283;SDS011;5698;47.332;11.180;2024-01-30T04:22:45;0.40;;;0.40;;
11283;SDS011;5698;47.332;11.180;2024-01-30T04:25:12;0.40;;;0.40;;
11283;SDS011;5698;47.332;11.180;2024-01-30T04:27:40;0.40;;;0.40;;
11283;SDS011;5698;47.332;11.180;2024-01-30T04:30:07;0.47;;;0.40;;
11283;SDS011;5698;47.332;11.180;2024-01-30T04:32:35;0.50;;;0.50;;
11283;SDS011;5698;47.332;11.180;2024-01-30T04:35:02;0.50;;;0.50;;
11283;SDS011;5698;47.332;11.180;2024-01-30T04:37:30;0.40;;;0.40;;
11283;SDS011;5698;47.332;11.180;2024-01-30T04:39:58;0.97;;;0.50;;
11283;SDS011;5698;47.332;11.180;2024-01-30T04:42:25;0.50;;;0.50;;
11283;SDS011;5698;47.332;11.180;2024-01-30T04:44:52;0.40;;;0.40;;
11283;SDS011;5698;47.332;11.180;2024-01-30T04:47:19;0.50;;;0.50;;
11283;SDS011;5698;47.332;11.180;2024-01-30T04:49:46;0.50;;;0.50;;
11283;SDS011;5698;47.332;11.180;2024-01-30T04:52:13;0.30;;;0.30;;
11283;SDS011;5698;47.332;11.180;2024-01-30T04:54:40;0.53;;;0.53;;
11283;SDS011;5698;47.332;11.180;2024-01-30T04:57:09;0.50;;;0.50;;
11283;SDS011;5698;47.332;11.180;2024-01-30T04:59:37;0.50;;;0.50;;
11283;SDS011;5698;47.332;11.180;2024-01-30T05:02:04;0.40;;;0.30;;
11283;SDS011;5698;47.332;11.180;2024-01-30T05:04:32;0.40;;;0.40;;
11283;SDS011;5698;47.332;11.180;2024-01-30T05:06:59;0.40;;;0.40;;
11283;SDS011;5698;47.332;11.180;2024-01-30T05:09:26;0.40;;;0.40;;
11283;SDS011;5698;47.332;11.180;2024-01-30T05:11:53;0.47;;;0.47;;
11283;SDS011;5698;47.332;11.180;2024-01-30T05:14:21;0.40;;;0.40;;
11283;SDS011;5698;47.332;11.180;2024-01-30T05:16:48;0.50;;;0.50;;
11283;SDS011;5698;47.332;11.180;2024-01-30T05:19:15;1.10;;;0.60;;
11283;SDS011;5698;47.332;11.180;2024-01-30T05:21:44;0.60;;;0.60;;
11283;SDS011;5698;47.332;11.180;2024-01-30T05:24:10;0.40;;;0.40;;
11283;SDS011;5698;47.332;11.180;2024-01-30T05:26:37;1.80;;;0.60;;
11283;SDS011;5698;47.332;11.180;2024-01-30T05:29:05;0.50;;;0.50;;
11283;SDS011;5698;47.332;11.180;2024-01-30T05:31:34;0.30;;;0.30;;
11283;SDS011;5698;47.332;11.180;2024-01-30T05:34:01;0.50;;;0.50;;
11283;SDS011;5698;47.332;11.180;2024-01-30T05:36:28;0.40;;;0.40;;
11283;SDS011;5698;47.332;11.180;2024-01-30T05:38:55;0.40;;;0.40;;
11283;SDS011;5698;47.332;11.180;2024-01-30T05:41:22;0.50;;;0.50;;
11283;SDS011;5698;47.332;11.180;2024-01-30T05:43:49;0.40;;;0.40;;
11283;SDS011;5698;47.332;11.180;2024-01-30T05:46:18;0.60;;;0.60;;
11283;SDS011;5698;47.332;11.180;2024-01-30T05:48:47;0.50;;;0.50;;
11283;SDS011;5698;47.332;11.180;2024-01-30T05:51:14;0.40;;;0.40;;
11283;SDS011;5698;47.332;11.180;2024-01-30T05:53:41;0.97;;;0.50;;
11283;SDS011;5698;47.332;11.180;2024-01-30T05:56:08;0.43;;;0.43;;
11283;SDS011;5698;47.332;11.180;2024-01-30T05:58:35;0.40;;;0.40;;
11283;SDS011;5698;47.332;11.180;2024-01-30T06:01:02;0.50;;;0.50;;
11283;SDS011;5698;47.332;11.180;2024-01-30T06:03:32;0.50;;;0.50;;
11283;SDS011;5698;47.332;11.180;2024-01-30T06:06:01;0.40;;;0.40;;
11283;SDS011;5698;47.332;11.180;2024-01-30T06:08:28;0.53;;;0.53;;
11283;SDS011;5698;47.332;11.180;2024-01-30T06:10:55;0.60;;;0.50;;
11283;SDS011;5698;47.332;11.180;2024-01-30T06:13:22;0.40;;;0.40;;
11283;SDS011;5698;47.332;11.180;2024-01-30T06:15:49;0.80;;;0.50;;
11283;SDS011;5698;47.332;11.180;2024-01-30T06:18:16;0.50;;;0.50;;
11283;SDS011;5698;47.332;11.180;2024-01-30T06:20:43;0.30;;;0.30;;
11283;SDS011;5698;47.332;11.180;2024-01-30T06:23:12;0.30;;;0.30;;
11283;SDS011;5698;47.332;11.180;2024-01-30T06:25:39;0.60;;;0.50;;
11283;SDS011;5698;47.332;11.180;2024-01-30T06:28:06;0.50;;;0.50;;
11283;SDS011;5698;47.332;11.180;2024-01-30T06:30:33;0.87;;;0.50;;
11283;SDS011;5698;47.332;11.180;2024-01-30T06:33:01;0.50;;;0.50;;
11283;SDS011;5698;47.332;11.180;2024-01-30T06:35:27;0.80;;;0.70;;
11283;SDS011;5698;47.332;11.180;2024-01-30T06:37:55;0.77;;;0.50;;
11283;SDS011;5698;47.332;11.180;2024-01-30T06:40:23;0.37;;;0.37;;
11283;SDS011;5698;47.332;11.180;2024-01-30T06:42:50;0.43;;;0.43;;
11283;SDS011;5698;47.332;11.180;2024-01-30T06:45:17;0.40;;;0.40;;
11283;SDS011;5698;47.332;11.180;2024-01-30T06:47:47;0.40;;;0.40;;
11283;SDS011;5698;47.332;11.180;2024-01-30T06:50:14;0.77;;;0.50;;
11283;SDS011;5698;47.332;11.180;2024-01-30T06:52:41;0.40;;;0.40;;
11283;SDS011;5698;47.332;11.180;2024-01-30T06:55:08;0.50;;;0.50;;
11283;SDS011;5698;47.332;11.180;2024-01-30T06:57:37;0.30;;;0.30;;
11283;SDS011;5698;47.332;11.180;2024-01-30T07:00:04;0.60;;;0.50;;
11283;SDS011;5698;47.332;11.180;2024-01-30T07:02:32;0.50;;;0.50;;
11283;SDS011;5698;47.332;11.180;2024-01-30T07:04:59;0.40;;;0.40;;
11283;SDS011;5698;47.332;11.180;2024-01-30T07:07:26;0.40;;;0.40;;
11283;SDS011;5698;47.332;11.180;2024-01-30T07:09:53;0.50;;;0.50;;
11283;SDS011;5698;47.332;11.180;2024-01-30T07:12:21;0.50;;;0.43;;
11283;SDS011;5698;47.332;11.180;2024-01-30T07:14:51;0.80;;;0.60;;
11283;SDS011;5698;47.332;11.180;2024-01-30T07:17:18;0.93;;;0.50;;
11283;SDS011;5698;47.332;11.180;2024-01-30T07:19:45;0.47;;;0.47;;
11283;SDS011;5698;47.332;11.180;2024-01-30T07:22:12;0.40;;;0.40;;
11283;SDS011;5698;47.332;11.180;2024-01-30T07:24:42;0.40;;;0.40;;
11283;SDS011;5698;47.332;11.180;2024-01-30T07:27:12;0.30;;;0.30;;
11283;SDS011;5698;47.332;11.180;2024-01-30T07:29:42;0.40;;;0.40;;
11283;SDS011;5698;47.332;11.180;2024-01-30T07:32:11;0.40;;;0.40;;
11283;SDS011;5698;47.332;11.180;2024-01-30T07:34:38;0.40;;;0.40;;
11283;SDS011;5698;47.332;11.180;2024-01-30T07:37:05;0.40;;;0.40;;
11283;SDS011;5698;47.332;11.180;2024-01-30T07:39:33;0.40;;;0.40;;
11283;SDS011;5698;47.332;11.180;2024-01-30T07:42:00;1.13;;;0.57;;
11283;SDS011;5698;47.332;11.180;2024-01-30T07:44:28;0.40;;;0.40;;
11283;SDS011;5698;47.332;11.180;2024-01-30T07:46:55;0.60;;;0.50;;
11283;SDS011;5698;47.332;11.180;2024-01-30T07:49:23;0.50;;;0.50;;
11283;SDS011;5698;47.332;11.180;2024-01-30T07:51:50;0.50;;;0.50;;
11283;SDS011;5698;47.332;11.180;2024-01-30T07:54:17;1.00;;;0.53;;
11283;SDS011;5698;47.332;11.180;2024-01-30T07:56:44;0.70;;;0.70;;
11283;SDS011;5698;47.332;11.180;2024-01-30T07:59:11;1.63;;;1.10;;
11283;SDS011;5698;47.332;11.180;2024-01-30T08:01:38;1.87;;;0.80;;
11283;SDS011;5698;47.332;11.180;2024-01-30T08:04:05;1.00;;;0.70;;
11283;SDS011;5698;47.332;11.180;2024-01-30T08:06:34;1.63;;;0.53;;
11283;SDS011;5698;47.332;11.180;2024-01-30T08:09:01;1.20;;;0.80;;
11283;SDS011;5698;47.332;11.180;2024-01-30T08:11:28;0.97;;;0.80;;
11283;SDS011;5698;47.332;11.180;2024-01-30T08:13:55;2.00;;;1.10;;
11283;SDS011;5698;47.332;11.180;2024-01-30T08:16:22;2.80;;;1.47;;
11283;SDS011;5698;47.332;11.180;2024-01-30T08:18:49;3.90;;;1.47;;
11283;SDS011;5698;47.332;11.180;2024-01-30T08:21:18;3.67;;;2.03;;
11283;SDS011;5698;47.332;11.180;2024-01-30T08:23:46;5.57;;;3.20;;
11283;SDS011;5698;47.332;11.180;2024-01-30T08:26:13;3.37;;;1.93;;
11283;SDS011;5698;47.332;11.180;2024-01-30T08:28:40;5.73;;;3.20;;
11283;SDS011;5698;47.332;11.180;2024-01-30T08:31:09;6.33;;;3.57;;
11283;SDS011;5698;47.332;11.180;2024-01-30T08:33:37;7.23;;;4.00;;
11283;SDS011;5698;47.332;11.180;2024-01-30T08:36:04;4.27;;;2.70;;
11283;SDS011;5698;47.332;11.180;2024-01-30T08:38:31;1.70;;;1.20;;
11283;SDS011;5698;47.332;11.180;2024-01-30T08:41:00;2.10;;;1.07;;
11283;SDS011;5698;47.332;11.180;2024-01-30T08:43:28;3.40;;;1.73;;
11283;SDS011;5698;47.332;11.180;2024-01-30T08:45:55;2.90;;;1.50;;
11283;SDS011;5698;47.332;11.180;2024-01-30T08:48:24;2.47;;;1.60;;
11283;SDS011;5698;47.332;11.180;2024-01-30T08:50:52;3.67;;;1.93;;
11283;SDS011;5698;47.332;11.180;2024-01-30T08:53:19;2.53;;;1.40;;
11283;SDS011;5698;47.332;11.180;2024-01-30T08:55:46;1.23;;;0.80;;
11283;SDS011;5698;47.332;11.180;2024-01-30T08:58:14;3.27;;;2.00;;
11283;SDS011;5698;47.332;11.180;2024-01-30T09:00:43;4.30;;;2.07;;
11283;SDS011;5698;47.332;11.180;2024-01-30T09:03:10;6.27;;;2.50;;
11283;SDS011;5698;47.332;11.180;2024-01-30T09:05:37;3.43;;;1.77;;
11283;SDS011;5698;47.332;11.180;2024-01-30T09:08:04;2.50;;;1.60;;
11283;SDS011;5698;47.332;11.180;2024-01-30T09:10:31;2.57;;;1.50;;
11283;SDS011;5698;47.332;11.180;2024-01-30T09:12:58;1.13;;;0.93;;
11283;SDS011;5698;47.332;11.180;2024-01-30T09:15:27;1.00;;;0.80;;
11283;SDS011;5698;47.332;11.180;2024-01-30T09:17:53;0.70;;;0.70;;
11283;SDS011;5698;47.332;11.180;2024-01-30T09:20:20;1.30;;;0.87;;
11283;SDS011;5698;47.332;11.180;2024-01-30T09:22:48;1.03;;;0.87;;
11283;SDS011;5698;47.332;11.180;2024-01-30T09:25:15;0.67;;;0.60;;
11283;SDS011;5698;47.332;11.180;2024-01-30T09:27:43;0.50;;;0.50;;
11283;SDS011;5698;47.332;11.180;2024-01-30T09:30:11;2.93;;;1.17;;
11283;SDS011;5698;47.332;11.180;2024-01-30T09:32:40;2.13;;;1.20;;
11283;SDS011;5698;47.332;11.180;2024-01-30T09:35:08;1.63;;;0.93;;
11283;SDS011;5698;47.332;11.180;2024-01-30T09:37:35;0.60;;;0.60;;
11283;SDS011;5698;47.332;11.180;2024-01-30T09:40:02;0.80;;;0.80;;
11283;SDS011;5698;47.332;11.180;2024-01-30T09:42:33;0.50;;;0.50;;
11283;SDS011;5698;47.332;11.180;2024-01-30T09:45:01;0.67;;;0.40;;
11283;SDS011;5698;47.332;11.180;2024-01-30T09:47:30;0.50;;;0.50;;
11283;SDS011;5698;47.332;11.180;2024-01-30T09:50:00;0.40;;;0.40;;
11283;SDS011;5698;47.332;11.180;2024-01-30T09:52:31;2.77;;;0.77;;
11283;SDS011;5698;47.332;11.180;2024-01-30T09:54:58;0.63;;;0.43;;
11283;SDS011;5698;47.332;11.180;2024-01-30T09:57:26;0.50;;;0.50;;
11283;SDS011;5698;47.332;11.180;2024-01-30T09:59:53;0.50;;;0.40;;
11283;SDS011;5698;47.332;11.180;2024-01-30T10:02:20;0.30;;;0.30;;
11283;SDS011;5698;47.332;11.180;2024-01-30T10:04:48;0.40;;;0.30;;
11283;SDS011;5698;47.332;11.180;2024-01-30T10:07:17;0.30;;;0.30;;
11283;SDS011;5698;47.332;11.180;2024-01-30T10:09:45;0.40;;;0.40;;
11283;SDS011;5698;47.332;11.180;2024-01-30T10:12:12;0.40;;;0.40;;
11283;SDS011;5698;47.332;11.180;2024-01-30T10:14:39;0.40;;;0.40;;
11283;SDS011;5698;47.332;11.180;2024-01-30T10:17:07;0.40;;;0.40;;
11283;SDS011;5698;47.332;11.180;2024-01-30T10:19:35;0.40;;;0.40;;
11283;SDS011;5698;47.332;11.180;2024-01-30T10:22:02;0.30;;;0.30;;
11283;SDS011;5698;47.332;11.180;2024-01-30T10:24:31;2.03;;;0.40;;
11283;SDS011;5698;47.332;11.180;2024-01-30T10:26:59;0.30;;;0.30;;
11283;SDS011;5698;47.332;11.180;2024-01-30T10:29:26;0.60;;;0.47;;
11283;SDS011;5698;47.332;11.180;2024-01-30T10:32:00;1.13;;;0.30;;
11283;SDS011;5698;47.332;11.180;2024-01-30T10:34:28;3.23;;;0.60;;
11283;SDS011;5698;47.332;11.180;2024-01-30T10:36:59;0.30;;;0.30;;
11283;SDS011;5698;47.332;11.180;2024-01-30T10:39:31;0.43;;;0.40;;
11283;SDS011;5698;47.332;11.180;2024-01-30T10:42:04;0.50;;;0.40;;
11283;SDS011;5698;47.332;11.180;2024-01-30T10:44:36;0.40;;;0.30;;
11283;SDS011;5698;47.332;11.180;2024-01-30T10:47:11;0.40;;;0.40;;
11283;SDS011;5698;47.332;11.180;2024-01-30T10:49:39;0.30;;;0.30;;
11283;SDS011;5698;47.332;11.180;2024-01-30T10:52:09;2.57;;;0.30;;
11283;SDS011;5698;47.332;11.180;2024-01-30T10:54:40;0.30;;;0.30;;
11283;SDS011;5698;47.332;11.180;2024-01-30T10:57:09;1.80;;;0.57;;
11283;SDS011;5698;47.332;11.180;2024-01-30T10:59:37;0.20;;;0.20;;
11283;SDS011;5698;47.332;11.180;2024-01-30T11:02:05;0.30;;;0.30;;
11283;SDS011;5698;47.332;11.180;2024-01-30T11:04:36;0.30;;;0.30;;
11283;SDS011;5698;47.332;11.180;2024-01-30T11:07:13;0.50;;;0.30;;
11283;SDS011;5698;47.332;11.180;2024-01-30T11:09:47;0.50;;;0.37;;
11283;SDS011;5698;47.332;11.180;2024-01-30T11:12:15;0.70;;;0.50;;
11283;SDS011;5698;47.332;11.180;2024-01-30T11:14:42;2.00;;;0.30;;
11283;SDS011;5698;47.332;11.180;2024-01-30T11:17:09;0.50;;;0.37;;
11283;SDS011;5698;47.332;11.180;2024-01-30T11:19:37;0.33;;;0.30;;
11283;SDS011;5698;47.332;11.180;2024-01-30T11:22:06;0.40;;;0.40;;
11283;SDS011;5698;47.332;11.180;2024-01-30T11:24:36;0.30;;;0.30;;
11283;SDS011;5698;47.332;11.180;2024-01-30T11:27:09;0.53;;;0.40;;
11283;SDS011;5698;47.332;11.180;2024-01-30T11:29:36;0.57;;;0.30;;
11283;SDS011;5698;47.332;11.180;2024-01-30T11:32:04;0.30;;;0.30;;
11283;SDS011;5698;47.332;11.180;2024-01-30T11:34:32;0.40;;;0.40;;
11283;SDS011;5698;47.332;11.180;2024-01-30T11:37:03;0.30;;;0.30;;
11283;SDS011;5698;47.332;11.180;2024-01-30T11:39:35;0.30;;;0.30;;
11283;SDS011;5698;47.332;11.180;2024-01-30T11:42:04;0.37;;;0.37;;
11283;SDS011;5698;47.332;11.180;2024-01-30T11:44:35;0.50;;;0.30;;
11283;SDS011;5698;47.332;11.180;2024-01-30T11:47:02;0.50;;;0.43;;
11283;SDS011;5698;47.332;11.180;2024-01-30T11:49:29;0.30;;;0.30;;
11283;SDS011;5698;47.332;11.180;2024-01-30T11:51:56;0.40;;;0.30;;
11283;SDS011;5698;47.332;11.180;2024-01-30T11:54:23;0.20;;;0.20;;
11283;SDS011;5698;47.332;11.180;2024-01-30T11:56:50;0.30;;;0.30;;
11283;SDS011;5698;47.332;11.180;2024-01-30T11:59:17;0.20;;;0.20;;
11283;SDS011;5698;47.332;11.180;2024-01-30T12:01:46;0.40;;;0.40;;
11283;SDS011;5698;47.332;11.180;2024-01-30T12:04:13;0.60;;;0.37;;
11283;SDS011;5698;47.332;11.180;2024-01-30T12:06:41;0.30;;;0.30;;
11283;SDS011;5698;47.332;11.180;2024-01-30T12:09:08;0.33;;;0.33;;
11283;SDS011;5698;47.332;11.180;2024-01-30T12:11:44;0.30;;;0.30;;
11283;SDS011;5698;47.332;11.180;2024-01-30T12:14:11;0.37;;;0.30;;
11283;SDS011;5698;47.332;11.180;2024-01-30T12:16:39;0.37;;;0.37;;
11283;SDS011;5698;47.332;11.180;2024-01-30T12:19:08;0.40;;;0.40;;
11283;SDS011;5698;47.332;11.180;2024-01-30T12:21:35;1.57;;;0.80;;
11283;SDS011;5698;47.332;11.180;2024-01-30T12:24:03;2.17;;;1.00;;
11283;SDS011;5698;47.332;11.180;2024-01-30T12:26:32;2.13;;;1.10;;
11283;SDS011;5698;47.332;11.180;2024-01-30T12:28:59;1.27;;;1.13;;
11283;SDS011;5698;47.332;11.180;2024-01-30T12:31:26;1.83;;;1.03;;
11283;SDS011;5698;47.332;11.180;2024-01-30T12:33:54;1.63;;;0.90;;
11283;SDS011;5698;47.332;11.180;2024-01-30T12:36:23;1.13;;;0.97;;
11283;SDS011;5698;47.332;11.180;2024-01-30T12:38:50;1.60;;;1.00;;
11283;SDS011;5698;47.332;11.180;2024-01-30T12:41:17;0.77;;;0.70;;
11283;SDS011;5698;47.332;11.180;2024-01-30T12:43:44;2.80;;;0.80;;
11283;SDS011;5698;47.332;11.180;2024-01-30T12:46:12;1.13;;;0.60;;
11283;SDS011;5698;47.332;11.180;2024-01-30T12:48:39;0.47;;;0.47;;
11283;SDS011;5698;47.332;11.180;2024-01-30T12:51:06;1.07;;;0.60;;
11283;SDS011;5698;47.332;11.180;2024-01-30T12:53:35;0.50;;;0.50;;
11283;SDS011;5698;47.332;11.180;2024-01-30T12:56:02;0.40;;;0.40;;
11283;SDS011;5698;47.332;11.180;2024-01-30T12:58:30;0.77;;;0.50;;
11283;SDS011;5698;47.332;11.180;2024-01-30T13:00:57;0.50;;;0.50;;
11283;SDS011;5698;47.332;11.180;2024-01-30T13:03:24;1.37;;;0.50;;
11283;SDS011;5698;47.332;11.180;2024-01-30T13:05:51;0.40;;;0.40;;
11283;SDS011;5698;47.332;11.180;2024-01-30T13:08:18;0.77;;;0.47;;
11283;SDS011;5698;47.332;11.180;2024-01-30T13:10:47;0.83;;;0.50;;
11283;SDS011;5698;47.332;11.180;2024-01-30T13:13:14;0.50;;;0.50;;
11283;SDS011;5698;47.332;11.180;2024-01-30T13:15:41;0.67;;;0.60;;
11283;SDS011;5698;47.332;11.180;2024-01-30T13:18:08;0.60;;;0.47;;
11283;SDS011;5698;47.332;11.180;2024-01-30T13:20:35;0.77;;;0.60;;
11283;SDS011;5698;47.332;11.180;2024-01-30T13:23:02;0.50;;;0.50;;
11283;SDS011;5698;47.332;11.180;2024-01-30T13:25:29;0.70;;;0.43;;
11283;SDS011;5698;47.332;11.180;2024-01-30T13:27:58;1.57;;;0.50;;
11283;SDS011;5698;47.332;11.180;2024-01-30T13:30:25;1.03;;;0.60;;
11283;SDS011;5698;47.332;11.180;2024-01-30T13:32:52;0.50;;;0.40;;
11283;SDS011;5698;47.332;11.180;2024-01-30T13:35:19;0.50;;;0.50;;
11283;SDS011;5698;47.332;11.180;2024-01-30T13:37:46;0.50;;;0.50;;
11283;SDS011;5698;47.332;11.180;2024-01-30T13:40:13;0.40;;;0.40;;
11283;SDS011;5698;47.332;11.180;2024-01-30T13:42:41;0.50;;;0.50;;
11283;SDS011;5698;47.332;11.180;2024-01-30T13:45:09;0.50;;;0.50;;
11283;SDS011;5698;47.332;11.180;2024-01-30T13:47:37;0.43;;;0.43;;
11283;SDS011;5698;47.332;11.180;2024-01-30T13:50:04;0.80;;;0.40;;
11283;SDS011;5698;47.332;11.180;2024-01-30T13:52:31;0.30;;;0.30;;
11283;SDS011;5698;47.332;11.180;2024-01-30T13:54:58;1.30;;;0.40;;
11283;SDS011;5698;47.332;11.180;2024-01-30T13:57:25;0.77;;;0.70;;
11283;SDS011;5698;47.332;11.180;2024-01-30T13:59:52;1.10;;;1.00;;
11283;SDS011;5698;47.332;11.180;2024-01-30T14:02:20;0.90;;;0.80;;
11283;SDS011;5698;47.332;11.180;2024-01-30T14:04:47;1.10;;;0.77;;
11283;SDS011;5698;47.332;11.180;2024-01-30T14:07:14;1.00;;;0.80;;
11283;SDS011;5698;47.332;11.180;2024-01-30T14:09:43;1.27;;;0.73;;
11283;SDS011;5698;47.332;11.180;2024-01-30T14:12:10;0.50;;;0.50;;
11283;SDS011;5698;47.332;11.180;2024-01-30T14:14:37;0.50;;;0.50;;
11283;SDS011;5698;47.332;11.180;2024-01-30T14:17:04;0.60;;;0.60;;
11283;SDS011;5698;47.332;11.180;2024-01-30T14:19:33;0.50;;;0.50;;
11283;SDS011;5698;47.332;11.180;2024-01-30T14:22:01;0.70;;;0.70;;
11283;SDS011;5698;47.332;11.180;2024-01-30T14:24:28;0.70;;;0.60;;
11283;SDS011;5698;47.332;11.180;2024-01-30T14:26:55;0.97;;;0.60;;
11283;SDS011;5698;47.332;11.180;2024-01-30T14:29:22;0.60;;;0.60;;
11283;SDS011;5698;47.332;11.180;2024-01-30T14:31:49;1.00;;;0.80;;
11283;SDS011;5698;47.332;11.180;2024-01-30T14:34:16;0.60;;;0.57;;
11283;SDS011;5698;47.332;11.180;2024-01-30T14:36:45;2.50;;;0.60;;
11283;SDS011;5698;47.332;11.180;2024-01-30T14:39:12;0.60;;;0.50;;
11283;SDS011;5698;47.332;11.180;2024-01-30T14:41:39;0.60;;;0.53;;
11283;SDS011;5698;47.332;11.180;2024-01-30T14:44:06;0.70;;;0.60;;
11283;SDS011;5698;47.332;11.180;2024-01-30T14:46:34;0.60;;;0.60;;
11283;SDS011;5698;47.332;11.180;2024-01-30T14:49:01;0.47;;;0.47;;
11283;SDS011;5698;47.332;11.180;2024-01-30T14:51:30;0.70;;;0.50;;